Time;durP1;ratioP1;P1;durP2;ratioP2;P2;SDS_P1;SDS_P2;PMS_P1;PMS_P2;Temp;Humidity;BMP_temperature;BMP_pressure;BME280_temperature;BME280_humidity;BME280_pressure;Samples;Min_cycle;Max_cycle;Signal;HPM_P1;HPM_P2
2022/04/16 00:01:20;;;;;;;44.03;19.23;;;7.30;99.90;;;;;;5084073;28;20044;-73
2022/04/16 00:03:46;;;;;;;43.17;20.33;;;7.30;99.90;;;;;;5087014;28;20074;-73
2022/04/16 00:06:12;;;;;;;43.13;18.92;;;7.10;99.90;;;;;;5085365;28;20114;-72
2022/04/16 00:08:37;;;;;;;41.22;19.23;;;7.00;99.90;;;;;;5085687;28;20513;-72
2022/04/16 00:11:06;;;;;;;41.78;19.15;;;7.00;99.90;;;;;;5091059;28;20066;-72
2022/04/16 00:13:32;;;;;;;51.50;20.55;;;6.90;99.90;;;;;;5089846;28;20032;-73
2022/04/16 00:15:58;;;;;;;45.20;19.85;;;6.80;99.90;;;;;;5089945;28;20036;-72
2022/04/16 00:18:24;;;;;;;40.90;18.83;;;6.80;99.90;;;;;;5087836;28;20122;-73
2022/04/16 00:20:51;;;;;;;42.05;18.73;;;6.70;99.90;;;;;;5085121;28;20566;-73
2022/04/16 00:23:19;;;;;;;41.42;19.35;;;6.60;99.90;;;;;;5086162;28;20375;-73
2022/04/16 00:25:48;;;;;;;40.65;18.90;;;6.60;99.90;;;;;;5069586;28;20491;-73
2022/04/16 00:28:14;;;;;;;44.83;19.95;;;6.60;99.90;;;;;;5085304;28;20101;-73
2022/04/16 00:30:39;;;;;;;43.53;19.00;;;6.50;99.90;;;;;;5089626;28;20422;-72
2022/04/16 00:33:08;;;;;;;47.53;20.85;;;6.40;99.90;;;;;;5090475;28;20440;-73
2022/04/16 00:35:34;;;;;;;45.10;19.92;;;6.40;99.90;;;;;;5088780;28;20050;-73
2022/04/16 00:38:00;;;;;;;49.83;21.40;;;6.30;99.90;;;;;;5091051;28;20036;-73
2022/04/16 00:40:25;;;;;;;43.30;20.30;;;6.30;99.90;;;;;;5088445;28;20115;-72
2022/04/16 00:42:51;;;;;;;47.45;20.85;;;6.30;99.90;;;;;;5090405;28;20047;-72
2022/04/16 00:45:17;;;;;;;53.20;21.75;;;6.20;99.90;;;;;;5090380;28;20054;-72
2022/04/16 00:47:45;;;;;;;47.47;21.58;;;6.10;99.90;;;;;;5090044;28;20087;-73
2022/04/16 00:50:11;;;;;;;49.33;21.27;;;6.10;99.90;;;;;;5088229;28;20118;-72
2022/04/16 00:52:38;;;;;;;53.70;22.80;;;6.00;99.90;;;;;;5090163;28;20048;-72
2022/04/16 00:55:06;;;;;;;53.08;22.25;;;6.00;99.90;;;;;;5087213;28;20063;-72
2022/04/16 00:57:32;;;;;;;55.17;23.55;;;6.00;99.90;;;;;;5089893;28;20043;-73
2022/04/16 01:00:00;;;;;;;52.05;22.67;;;6.00;99.90;;;;;;5089917;28;20057;-72
2022/04/16 01:02:25;;;;;;;54.40;23.50;;;6.00;99.90;;;;;;5089915;28;20032;-74
2022/04/16 01:04:51;;;;;;;59.05;23.15;;;5.90;99.90;;;;;;5090295;28;20523;-73
2022/04/16 01:07:24;;;;;;;51.35;22.77;;;5.90;99.90;;;;;;5090145;28;20074;-73
2022/04/16 01:09:50;;;;;;;57.47;22.88;;;5.80;99.90;;;;;;5088446;28;20134;-73
2022/04/16 01:12:16;;;;;;;60.10;24.10;;;5.80;99.90;;;;;;5089202;28;20131;-72
2022/04/16 01:14:41;;;;;;;56.00;23.77;;;5.80;99.90;;;;;;5085830;28;20289;-73
2022/04/16 01:17:07;;;;;;;60.60;24.88;;;5.70;99.90;;;;;;5071650;28;20693;-73
2022/04/16 01:19:34;;;;;;;55.95;24.33;;;5.70;99.90;;;;;;5070586;28;20123;-73
2022/04/16 01:22:00;;;;;;;60.75;24.67;;;5.60;99.90;;;;;;5089994;28;20043;-72
2022/04/16 01:24:25;;;;;;;60.75;24.33;;;5.60;99.90;;;;;;5088915;28;20044;-72
2022/04/16 01:26:51;;;;;;;60.00;25.02;;;5.60;99.90;;;;;;5087454;28;20070;-73
2022/04/16 01:29:17;;;;;;;57.95;25.83;;;5.60;99.90;;;;;;5088629;28;20498;-73
2022/04/16 01:31:43;;;;;;;63.70;26.35;;;5.60;99.90;;;;;;5089096;28;20048;-73
2022/04/16 01:34:08;;;;;;;58.15;25.17;;;5.50;99.90;;;;;;5089506;28;20044;-73
2022/04/16 01:36:34;;;;;;;56.83;24.77;;;5.50;99.90;;;;;;5087232;28;20036;-73
2022/04/16 01:39:00;;;;;;;56.47;24.65;;;5.60;99.90;;;;;;5087042;28;20515;-72
2022/04/16 01:41:28;;;;;;;56.22;24.05;;;5.50;99.90;;;;;;5088486;28;20459;-72
2022/04/16 01:43:54;;;;;;;61.03;25.40;;;5.50;99.90;;;;;;5086477;28;20406;-73
2022/04/16 01:46:21;;;;;;;56.88;24.75;;;5.40;99.90;;;;;;5101227;28;20047;-72
2022/04/16 01:48:49;;;;;;;68.10;25.33;;;5.50;99.90;;;;;;5084525;28;20406;-73
2022/04/16 01:51:17;;;;;;;64.78;26.15;;;5.40;99.90;;;;;;5088049;28;20067;-73
2022/04/16 01:53:44;;;;;;;61.22;26.17;;;5.40;99.90;;;;;;5084967;28;20039;-73
2022/04/16 01:56:10;;;;;;;66.85;26.35;;;5.40;99.90;;;;;;5085147;28;20398;-73
2022/04/16 01:58:38;;;;;;;66.85;27.08;;;5.40;99.90;;;;;;5086111;28;20051;-72
2022/04/16 02:01:11;;;;;;;60.92;25.70;;;5.40;99.90;;;;;;5086953;28;20410;-73
2022/04/16 02:03:37;;;;;;;67.13;25.55;;;5.50;99.90;;;;;;5085069;28;20032;-73
2022/04/16 02:06:04;;;;;;;62.10;25.17;;;5.50;99.90;;;;;;5088198;28;20074;-73
2022/04/16 02:08:29;;;;;;;59.40;24.45;;;5.50;99.90;;;;;;5086095;28;20055;-73
2022/04/16 02:10:55;;;;;;;69.53;26.63;;;5.50;99.90;;;;;;5086491;28;20047;-72
2022/04/16 02:13:21;;;;;;;66.00;26.75;;;5.60;99.90;;;;;;5086570;28;20048;-72
2022/04/16 02:15:46;;;;;;;68.35;27.90;;;5.60;99.90;;;;;;5088577;28;20040;-73
2022/04/16 02:18:12;;;;;;;70.72;26.83;;;5.70;99.90;;;;;;5088110;28;20043;-72
2022/04/16 02:20:38;;;;;;;65.53;26.25;;;5.70;99.90;;;;;;5087758;28;20055;-72
2022/04/16 02:23:04;;;;;;;68.22;27.00;;;5.70;99.90;;;;;;5085403;28;20031;-72
2022/04/16 02:25:33;;;;;;;68.22;27.92;;;5.70;99.90;;;;;;5088377;28;20036;-73
2022/04/16 02:27:58;;;;;;;61.95;26.25;;;5.70;99.90;;;;;;5088042;28;20032;-72
2022/04/16 02:30:24;;;;;;;66.72;27.45;;;5.70;99.90;;;;;;5087594;28;20197;-72
2022/04/16 02:32:54;;;;;;;65.72;26.25;;;5.70;99.90;;;;;;5084007;28;20036;-72
2022/04/16 02:35:21;;;;;;;69.32;27.95;;;5.60;99.90;;;;;;5070035;28;20040;-72
2022/04/16 02:37:47;;;;;;;69.82;28.17;;;5.70;99.90;;;;;;5086815;28;20086;-72
2022/04/16 02:40:13;;;;;;;71.55;27.98;;;5.60;99.90;;;;;;5086931;28;20137;-72
2022/04/16 02:42:41;;;;;;;72.70;27.30;;;5.60;99.90;;;;;;5083529;28;20127;-73
2022/04/16 02:47:54;;;;;;;63.70;25.77;;;5.60;99.90;;;;;;5086077;28;20175;-72
2022/04/16 02:50:20;;;;;;;60.20;26.33;;;5.70;99.90;;;;;;5085170;28;20043;-72
2022/04/16 02:52:46;;;;;;;70.18;28.95;;;5.70;99.90;;;;;;5085987;28;20348;-72
2022/04/16 02:55:16;;;;;;;68.70;27.90;;;5.80;99.90;;;;;;5084029;28;20032;-73
2022/04/16 02:57:45;;;;;;;66.05;27.35;;;5.80;99.90;;;;;;5085293;28;20082;-72
2022/04/16 03:00:13;;;;;;;67.30;27.13;;;5.70;99.90;;;;;;5085273;28;20032;-72
2022/04/16 03:02:38;;;;;;;69.78;27.83;;;5.70;99.90;;;;;;5086522;28;20111;-72
2022/04/16 03:05:06;;;;;;;70.55;28.38;;;5.50;99.90;;;;;;5087011;28;20131;-72
2022/04/16 03:07:35;;;;;;;77.43;30.27;;;5.50;99.90;;;;;;5065590;28;20038;-72
2022/04/16 03:10:06;;;;;;;66.32;28.25;;;5.50;99.90;;;;;;5086397;28;20501;-72
2022/04/16 03:12:51;;;;;;;74.20;28.17;;;5.40;99.90;;;;;;5085347;28;20377;-72
2022/04/16 03:18:03;;;;;;;72.85;29.08;;;5.20;99.90;;;;;;5084318;28;20094;-72
2022/04/16 03:20:29;;;;;;;70.60;28.30;;;5.20;99.90;;;;;;5087885;28;20036;-72
2022/04/16 03:22:59;;;;;;;76.65;29.70;;;5.20;99.90;;;;;;5088090;28;20126;-72
2022/04/16 03:25:25;;;;;;;81.78;29.42;;;5.20;99.90;;;;;;5084919;28;20490;-72
2022/04/16 03:27:51;;;;;;;72.45;28.85;;;5.20;99.90;;;;;;5079065;28;20058;-72
2022/04/16 03:30:17;;;;;;;72.30;30.35;;;5.20;99.90;;;;;;5088077;28;20493;-72
2022/04/16 03:32:47;;;;;;;80.22;29.85;;;5.20;99.90;;;;;;5087974;28;20059;-73
2022/04/16 03:35:13;;;;;;;76.05;29.85;;;5.10;99.90;;;;;;5081328;28;20643;-72
2022/04/16 03:37:39;;;;;;;76.97;28.95;;;5.10;99.90;;;;;;5087253;28;20082;-72
2022/04/16 03:40:06;;;;;;;75.00;29.90;;;5.10;99.90;;;;;;5084644;28;20028;-73
2022/04/16 03:42:32;;;;;;;79.72;30.00;;;5.10;99.90;;;;;;5084006;28;20040;-72
2022/04/16 03:45:00;;;;;;;81.05;30.98;;;5.00;99.90;;;;;;5086154;28;20040;-72
2022/04/16 03:47:25;;;;;;;75.22;29.15;;;5.00;99.90;;;;;;5084518;28;20388;-72
2022/04/16 03:49:51;;;;;;;77.22;31.30;;;4.90;99.90;;;;;;5085842;28;21513;-72
2022/04/16 03:52:17;;;;;;;76.18;29.85;;;5.00;99.90;;;;;;5085833;28;20044;-72
2022/04/16 04:00:12;;;;;;;86.68;31.65;;;4.90;99.90;;;;;;5085248;28;20048;-72
2022/04/16 04:02:38;;;;;;;80.85;30.83;;;4.90;99.90;;;;;;5087292;28;20073;-72
2022/04/16 04:05:06;;;;;;;76.78;29.42;;;4.90;99.90;;;;;;5083466;28;20131;-72
2022/04/16 04:07:32;;;;;;;68.50;28.67;;;5.00;99.90;;;;;;5084114;28;20254;-72
2022/04/16 04:09:58;;;;;;;74.55;29.02;;;5.10;99.90;;;;;;5086721;28;20044;-72
2022/04/16 04:12:24;;;;;;;76.30;30.00;;;5.00;99.90;;;;;;5085003;28;20047;-73
2022/04/16 04:14:49;;;;;;;82.75;31.48;;;5.00;99.90;;;;;;5084963;28;20036;-72
2022/04/16 04:17:15;;;;;;;90.82;33.45;;;5.20;99.90;;;;;;5086380;28;20403;-73
2022/04/16 04:19:43;;;;;;;86.82;30.95;;;5.10;99.90;;;;;;5086134;28;20406;-72
2022/04/16 04:22:11;;;;;;;98.88;34.03;;;5.20;99.90;;;;;;5085606;28;20127;-72
2022/04/16 04:24:38;;;;;;;102.60;34.28;;;5.30;99.90;;;;;;5085230;28;20048;-72
2022/04/16 04:27:04;;;;;;;100.60;34.35;;;5.40;99.90;;;;;;5069123;28;20398;-72
2022/04/16 04:29:30;;;;;;;99.10;34.22;;;5.40;99.90;;;;;;5085998;28;20050;-73
2022/04/16 04:31:56;;;;;;;110.03;35.83;;;5.60;99.90;;;;;;5085969;28;20093;-72
2022/04/16 04:34:22;;;;;;;107.57;36.90;;;5.70;99.90;;;;;;5083092;28;20032;-71
2022/04/16 04:36:48;;;;;;;109.80;36.83;;;5.70;99.90;;;;;;5084519;28;20515;-75
2022/04/16 04:39:14;;;;;;;108.63;37.17;;;5.90;99.90;;;;;;5084851;28;20119;-73
2022/04/16 04:41:42;;;;;;;115.03;38.05;;;5.90;99.90;;;;;;5082718;28;20041;-74
2022/04/16 04:44:11;;;;;;;110.63;38.40;;;6.10;99.90;;;;;;5084772;28;20123;-72
2022/04/16 04:46:38;;;;;;;111.45;36.58;;;6.20;99.90;;;;;;5085453;28;20058;-73
2022/04/16 04:49:07;;;;;;;115.70;38.50;;;6.30;99.90;;;;;;5084789;28;20403;-72
2022/04/16 04:51:34;;;;;;;109.03;38.05;;;6.30;99.90;;;;;;5085288;28;20040;-77
2022/04/16 04:54:00;;;;;;;110.43;37.58;;;6.40;99.90;;;;;;5086374;28;20040;-73
2022/04/16 04:56:25;;;;;;;110.03;37.92;;;6.50;99.90;;;;;;5088786;28;20062;-75
2022/04/16 04:58:50;;;;;;;108.20;39.10;;;6.50;99.90;;;;;;5089919;28;20035;-71
2022/04/16 05:01:18;;;;;;;109.18;37.10;;;6.70;99.90;;;;;;5089138;28;20036;-74
2022/04/16 05:03:43;;;;;;;117.32;38.25;;;6.70;99.90;;;;;;5087237;28;20051;-74
2022/04/16 05:06:09;;;;;;;106.80;35.45;;;6.80;99.90;;;;;;5090462;28;20126;-75
2022/04/16 05:08:34;;;;;;;106.45;35.72;;;6.80;99.90;;;;;;5089799;28;20069;-71
2022/04/16 05:11:00;;;;;;;110.68;37.35;;;6.80;99.90;;;;;;5086505;28;20070;-74
2022/04/16 05:13:25;;;;;;;103.65;37.20;;;6.90;99.90;;;;;;5089168;28;20068;-70
2022/04/16 05:15:51;;;;;;;103.03;36.63;;;6.90;99.90;;;;;;5089238;28;20335;-71
2022/04/16 05:18:16;;;;;;;107.30;35.80;;;7.00;99.90;;;;;;5089061;28;20078;-73
2022/04/16 05:20:42;;;;;;;98.05;34.58;;;7.00;99.90;;;;;;5087614;28;20051;-72
2022/04/16 05:23:07;;;;;;;96.40;34.65;;;7.10;99.90;;;;;;5089304;28;20048;-71
2022/04/16 05:25:33;;;;;;;90.57;33.30;;;7.10;99.90;;;;;;5087503;28;20040;-70
2022/04/16 05:27:58;;;;;;;89.20;32.53;;;7.10;99.90;;;;;;5089564;28;20402;-72
2022/04/16 05:30:30;;;;;;;81.57;30.55;;;7.30;99.90;;;;;;5088260;28;20044;-71
2022/04/16 05:33:02;;;;;;;81.53;31.02;;;7.30;99.90;;;;;;5088053;28;20451;-72
2022/04/16 05:35:28;;;;;;;78.97;29.52;;;7.30;99.90;;;;;;5085826;28;20039;-73
2022/04/16 05:37:53;;;;;;;80.78;32.08;;;7.20;99.90;;;;;;5089034;28;20089;-71
2022/04/16 05:40:19;;;;;;;79.70;29.42;;;7.40;99.90;;;;;;5088092;28;20455;-67
2022/04/16 05:42:44;;;;;;;82.32;29.08;;;7.40;99.90;;;;;;5088448;28;20042;-71
2022/04/16 05:45:14;;;;;;;73.32;30.33;;;7.40;99.90;;;;;;5087397;28;20081;-70
2022/04/16 05:47:41;;;;;;;75.32;29.30;;;7.40;99.90;;;;;;5089094;28;20086;-70
2022/04/16 05:50:07;;;;;;;77.00;30.20;;;7.40;99.90;;;;;;5088131;28;20081;-72
2022/04/16 05:52:33;;;;;;;73.72;30.10;;;7.50;99.90;;;;;;5087615;28;20050;-70
2022/04/16 05:54:59;;;;;;;72.03;29.98;;;7.50;99.90;;;;;;5088340;28;20031;-72
2022/04/16 05:57:26;;;;;;;83.68;30.52;;;7.50;99.90;;;;;;5087349;28;20040;-73
2022/04/16 05:59:51;;;;;;;74.60;29.95;;;7.50;99.90;;;;;;5086033;28;20575;-73
2022/04/16 06:02:17;;;;;;;71.28;29.70;;;7.70;99.90;;;;;;5089461;28;20043;-73
2022/04/16 06:04:43;;;;;;;75.78;28.90;;;7.70;99.90;;;;;;5088794;28;20047;-71
2022/04/16 06:07:08;;;;;;;76.63;29.95;;;7.70;99.90;;;;;;5088434;28;20372;-70
2022/04/16 06:09:34;;;;;;;72.15;29.08;;;7.70;99.90;;;;;;5087875;28;20372;-73
2022/04/16 06:12:04;;;;;;;67.55;28.52;;;7.80;99.90;;;;;;5087915;28;20083;-72
2022/04/16 06:14:30;;;;;;;71.93;28.45;;;7.80;99.90;;;;;;5084276;28;20053;-69
2022/04/16 06:16:55;;;;;;;68.85;28.55;;;7.90;99.90;;;;;;5088020;28;20040;-73
2022/04/16 06:19:21;;;;;;;70.40;28.60;;;8.00;99.90;;;;;;5086131;28;21531;-70
2022/04/16 06:21:46;;;;;;;69.63;26.77;;;8.10;99.90;;;;;;5070886;28;20510;-71
2022/04/16 06:24:12;;;;;;;60.65;26.13;;;8.30;99.90;;;;;;5086319;28;20441;-73
2022/04/16 06:26:37;;;;;;;59.50;26.10;;;8.40;99.90;;;;;;5086093;28;20050;-71
2022/04/16 06:29:03;;;;;;;65.22;27.63;;;8.60;99.90;;;;;;5085778;28;20067;-69
2022/04/16 06:31:28;;;;;;;63.53;26.02;;;8.60;99.90;;;;;;5087640;28;20044;-74
2022/04/16 06:33:54;;;;;;;62.88;25.60;;;8.60;99.90;;;;;;5071282;28;20080;-73
2022/04/16 06:36:19;;;;;;;59.42;25.35;;;8.70;99.90;;;;;;5088290;28;20474;-72
2022/04/16 06:38:45;;;;;;;55.45;23.55;;;8.80;99.90;;;;;;5087334;28;20028;-71
2022/04/16 06:41:11;;;;;;;57.20;24.95;;;8.70;99.90;;;;;;5088633;28;20468;-68
2022/04/16 06:43:36;;;;;;;58.35;24.05;;;8.80;99.90;;;;;;5088447;28;20067;-69
2022/04/16 06:46:03;;;;;;;57.10;24.55;;;8.80;99.90;;;;;;5086426;28;20048;-70
2022/04/16 06:48:28;;;;;;;63.28;26.00;;;8.80;99.90;;;;;;5084875;28;20036;-71
2022/04/16 06:50:54;;;;;;;65.68;25.58;;;8.90;99.90;;;;;;5081285;28;20043;-71
2022/04/16 06:53:19;;;;;;;59.53;25.23;;;8.90;99.90;;;;;;5086949;28;20043;-73
2022/04/16 06:55:45;;;;;;;59.00;25.27;;;8.90;99.90;;;;;;5088308;28;20093;-72
2022/04/16 06:58:11;;;;;;;65.03;25.88;;;8.90;99.90;;;;;;5087261;28;20111;-72
2022/04/16 07:00:36;;;;;;;63.65;24.92;;;9.00;99.90;;;;;;5085618;28;20036;-67
2022/04/16 07:03:02;;;;;;;66.70;25.08;;;9.10;99.90;;;;;;5087491;28;20039;-71
2022/04/16 07:05:27;;;;;;;59.95;24.63;;;9.10;99.90;;;;;;5085475;28;20048;-69
2022/04/16 07:07:53;;;;;;;55.42;24.08;;;9.20;99.90;;;;;;5086419;28;20521;-69
2022/04/16 07:10:18;;;;;;;54.45;22.63;;;9.10;99.90;;;;;;5086230;28;20048;-70
2022/04/16 07:12:44;;;;;;;62.65;24.08;;;9.10;99.90;;;;;;5084838;28;20081;-71
2022/04/16 07:15:09;;;;;;;59.78;25.35;;;9.20;99.90;;;;;;5085643;28;20078;-68
2022/04/16 07:17:35;;;;;;;57.20;23.33;;;9.40;99.90;;;;;;5087074;28;20034;-69
2022/04/16 07:20:01;;;;;;;52.60;23.50;;;9.50;99.90;;;;;;5085756;28;20028;-73
2022/04/16 07:22:26;;;;;;;61.25;24.58;;;9.60;99.90;;;;;;5084680;28;20040;-71
2022/04/16 07:24:52;;;;;;;57.38;22.70;;;9.70;99.90;;;;;;5084738;28;20075;-70
2022/04/16 07:27:17;;;;;;;57.33;23.05;;;9.80;99.90;;;;;;5083786;28;20483;-72
2022/04/16 07:29:43;;;;;;;55.03;23.05;;;9.90;99.90;;;;;;5086499;28;20567;-68
2022/04/16 07:32:09;;;;;;;55.00;23.67;;;9.90;99.90;;;;;;5087570;28;20036;-71
2022/04/16 07:34:34;;;;;;;50.67;21.77;;;10.00;99.90;;;;;;5085519;28;20036;-69
2022/04/16 07:37:00;;;;;;;51.30;22.90;;;10.00;99.90;;;;;;5085208;28;20044;-69
2022/04/16 07:39:25;;;;;;;49.70;20.55;;;10.00;99.90;;;;;;5086241;28;20040;-71
2022/04/16 07:41:51;;;;;;;52.45;22.40;;;9.90;99.90;;;;;;5087366;28;20048;-72
2022/04/16 07:44:17;;;;;;;46.58;21.00;;;9.90;99.90;;;;;;5087039;28;20055;-72
2022/04/16 07:46:43;;;;;;;55.83;22.58;;;9.80;99.90;;;;;;5087017;28;20069;-67
2022/04/16 07:49:09;;;;;;;53.42;21.60;;;9.90;99.90;;;;;;5086950;28;20526;-72
2022/04/16 07:51:34;;;;;;;51.97;22.52;;;10.00;99.90;;;;;;5087462;28;20097;-70
2022/04/16 07:54:00;;;;;;;59.28;22.88;;;10.00;99.90;;;;;;5085841;28;20526;-71
2022/04/16 07:56:26;;;;;;;51.75;22.00;;;10.20;99.90;;;;;;5087203;28;20539;-69
2022/04/16 07:58:53;;;;;;;53.97;22.33;;;10.20;99.90;;;;;;5085523;28;20467;-69
2022/04/16 08:01:19;;;;;;;49.17;21.52;;;10.40;99.90;;;;;;5087381;28;20483;-71
2022/04/16 08:03:45;;;;;;;45.78;21.73;;;10.50;99.90;;;;;;5087102;28;20078;-73
2022/04/16 08:06:11;;;;;;;44.20;20.25;;;10.70;99.90;;;;;;5087046;28;20078;-72
2022/04/16 08:08:37;;;;;;;47.85;21.02;;;10.80;99.90;;;;;;5082338;28;20471;-69
2022/04/16 08:11:02;;;;;;;44.90;19.95;;;10.80;99.90;;;;;;5085398;28;20040;-71
2022/04/16 08:13:28;;;;;;;47.63;21.23;;;10.80;99.90;;;;;;5086183;28;20113;-75
2022/04/16 08:15:54;;;;;;;54.42;22.45;;;10.80;99.90;;;;;;5083834;28;20081;-69
2022/04/16 08:18:19;;;;;;;53.20;22.67;;;10.80;99.90;;;;;;5087171;28;20085;-70
2022/04/16 08:20:45;;;;;;;51.20;22.73;;;10.80;99.90;;;;;;5085273;28;20067;-75
2022/04/16 08:23:11;;;;;;;46.63;20.75;;;10.70;99.90;;;;;;5086967;28;20036;-69
2022/04/16 08:28:04;;;;;;;47.60;21.90;;;10.70;99.90;;;;;;5086786;28;20109;-71
2022/04/16 08:30:30;;;;;;;48.75;21.63;;;10.70;99.90;;;;;;5088346;28;20036;-71
2022/04/16 08:32:56;;;;;;;46.30;20.23;;;10.80;99.90;;;;;;5074177;28;20130;-69
2022/04/16 08:35:22;;;;;;;43.13;20.13;;;10.90;99.90;;;;;;5089765;28;20162;-70
2022/04/16 08:37:48;;;;;;;40.78;18.98;;;11.00;99.90;;;;;;5090204;28;20043;-72
2022/04/16 08:40:15;;;;;;;36.78;17.55;;;11.10;99.90;;;;;;5081189;28;20079;-72
2022/04/16 08:42:45;;;;;;;36.05;17.20;;;11.20;99.90;;;;;;5090702;28;20067;-75
2022/04/16 08:45:12;;;;;;;35.45;16.60;;;11.20;99.90;;;;;;5091516;28;20047;-75
2022/04/16 08:47:38;;;;;;;34.65;15.77;;;11.20;99.90;;;;;;5087351;28;20418;-69
2022/04/16 08:50:10;;;;;;;33.97;15.93;;;11.30;99.90;;;;;;5089882;28;20051;-72
2022/04/16 08:52:37;;;;;;;31.42;14.23;;;11.40;99.90;;;;;;5090790;28;20490;-69
2022/04/16 08:55:05;;;;;;;35.08;15.25;;;11.30;99.90;;;;;;5092273;28;20047;-71
2022/04/16 08:57:30;;;;;;;32.88;16.02;;;11.40;99.90;;;;;;5092152;28;20059;-71
2022/04/16 08:59:57;;;;;;;31.20;14.57;;;11.30;99.90;;;;;;5089456;28;20040;-68
2022/04/16 09:02:25;;;;;;;29.55;14.00;;;11.40;99.90;;;;;;5091897;28;20118;-71
2022/04/16 09:05:05;;;;;;;29.20;13.50;;;11.50;99.90;;;;;;5089896;28;20516;-74
2022/04/16 09:07:31;;;;;;;33.78;13.90;;;11.60;99.90;;;;;;5087709;28;20398;-67
2022/04/16 09:10:08;;;;;;;29.38;14.00;;;11.60;99.90;;;;;;5072814;28;20039;-72
2022/04/16 09:12:37;;;;;;;29.60;13.80;;;11.70;99.90;;;;;;5088001;28;20070;-71
2022/04/16 09:15:10;;;;;;;27.52;12.45;;;11.70;99.90;;;;;;5090082;28;20031;-72
2022/04/16 09:17:36;;;;;;;31.58;13.95;;;11.70;99.90;;;;;;5087890;28;20040;-70
2022/04/16 09:20:03;;;;;;;29.35;13.50;;;11.80;99.90;;;;;;5088492;28;20039;-71
2022/04/16 09:22:33;;;;;;;24.08;11.52;;;11.80;99.90;;;;;;5090462;28;20036;-71
2022/04/16 09:24:59;;;;;;;25.60;12.27;;;11.90;99.90;;;;;;5091048;28;20046;-73
2022/04/16 09:27:24;;;;;;;24.95;11.68;;;11.90;99.90;;;;;;5089302;28;20394;-74
2022/04/16 09:29:52;;;;;;;21.52;10.52;;;12.00;99.90;;;;;;5083305;28;20036;-75
2022/04/16 09:32:23;;;;;;;22.27;10.43;;;12.10;99.90;;;;;;5086950;28;20050;-69
2022/04/16 09:34:48;;;;;;;22.58;10.50;;;12.10;99.90;;;;;;5090068;28;20521;-72
2022/04/16 09:37:14;;;;;;;24.60;11.02;;;12.20;99.90;;;;;;5087831;28;20068;-70
2022/04/16 09:39:40;;;;;;;15.20;8.30;;;12.20;99.90;;;;;;5088907;28;20040;-72
2022/04/16 09:42:05;;;;;;;12.75;6.80;;;12.30;99.90;;;;;;5088363;28;20397;-73
2022/04/16 09:44:31;;;;;;;11.80;6.28;;;12.50;99.90;;;;;;5075532;28;20039;-76
2022/04/16 09:46:57;;;;;;;13.10;6.38;;;12.60;99.90;;;;;;5072269;28;20040;-72
2022/04/16 09:49:23;;;;;;;11.93;6.05;;;12.80;99.90;;;;;;5085641;28;20043;-74
2022/04/16 09:51:50;;;;;;;15.82;6.90;;;12.90;99.90;;;;;;5080295;28;20044;-72
2022/04/16 09:54:16;;;;;;;13.88;5.82;;;13.00;99.90;;;;;;5090800;28;20118;-76
2022/04/16 09:56:47;;;;;;;10.38;4.80;;;13.10;99.90;;;;;;5089604;28;20076;-71
2022/04/16 09:59:14;;;;;;;11.38;5.05;;;13.20;99.90;;;;;;5088028;28;20051;-71
2022/04/16 10:01:46;;;;;;;10.20;5.05;;;13.10;99.90;;;;;;5079019;28;20124;-69
2022/04/16 10:04:17;;;;;;;10.82;5.47;;;13.20;99.90;;;;;;5090520;28;20044;-72
2022/04/16 10:06:44;;;;;;;9.95;5.40;;;13.20;99.90;;;;;;5081392;28;20085;-75
2022/04/16 10:09:13;;;;;;;16.20;6.05;;;13.20;99.90;;;;;;5090101;28;20032;-72
2022/04/16 10:14:39;;;;;;;7.53;4.03;;;13.30;99.90;;;;;;5083655;28;20478;-73
2022/04/16 10:17:14;;;;;;;6.82;3.67;;;13.30;99.90;;;;;;5083174;28;20101;-68
2022/04/16 10:19:47;;;;;;;5.05;3.33;;;13.30;99.90;;;;;;5087880;28;20221;-73
2022/04/16 10:22:27;;;;;;;6.00;3.42;;;13.20;99.90;;;;;;5088265;28;20039;-74
2022/04/16 10:24:59;;;;;;;7.97;3.60;;;13.20;99.90;;;;;;5087692;28;20040;-69
2022/04/16 10:27:26;;;;;;;8.02;3.95;;;13.20;99.90;;;;;;5088447;28;20083;-70
2022/04/16 10:29:54;;;;;;;6.78;3.80;;;13.10;99.90;;;;;;5088752;28;20138;-72
2022/04/16 10:32:19;;;;;;;8.27;3.88;;;13.10;99.90;;;;;;5088757;28;20040;-71
2022/04/16 10:34:46;;;;;;;6.15;3.53;;;13.20;99.90;;;;;;5086775;28;20043;-71
2022/04/16 10:37:24;;;;;;;11.27;4.47;;;13.20;99.90;;;;;;5088814;28;20032;-71
2022/04/16 10:39:53;;;;;;;8.32;4.47;;;13.30;99.90;;;;;;5087726;28;20530;-71
2022/04/16 10:42:35;;;;;;;6.78;3.50;;;13.40;99.90;;;;;;5086684;28;20047;-69
2022/04/16 10:45:11;;;;;;;8.02;3.90;;;13.40;99.90;;;;;;5087126;28;20039;-70
2022/04/16 10:47:41;;;;;;;7.00;3.67;;;13.40;99.90;;;;;;5089145;28;20055;-73
2022/04/16 10:50:18;;;;;;;5.50;3.13;;;13.40;99.90;;;;;;5087998;28;20032;-72
2022/04/16 10:53:02;;;;;;;7.13;3.50;;;13.40;99.90;;;;;;5086242;28;20165;-70
2022/04/16 10:55:31;;;;;;;6.63;3.10;;;13.40;99.90;;;;;;5087124;28;20429;-74
2022/04/16 10:58:03;;;;;;;4.88;2.63;;;13.50;99.90;;;;;;5089268;28;20078;-75
2022/04/16 11:00:44;;;;;;;5.88;3.20;;;13.50;99.90;;;;;;5089228;28;20122;-70
2022/04/16 11:03:28;;;;;;;7.47;3.70;;;13.60;99.90;;;;;;5071321;28;20410;-72
2022/04/16 11:06:20;;;;;;;7.32;3.22;;;13.60;99.90;;;;;;5086812;28;20085;-71
2022/04/16 11:08:46;;;;;;;4.65;2.60;;;13.60;96.00;;;;;;5083739;28;20155;-71
2022/04/16 11:11:13;;;;;;;5.18;2.92;;;13.60;99.90;;;;;;5088515;28;20543;-76
2022/04/16 11:13:41;;;;;;;5.32;2.90;;;13.70;99.90;;;;;;5086536;28;20103;-69
2022/04/16 11:16:08;;;;;;;4.15;2.92;;;13.80;96.30;;;;;;5087920;28;20475;-72
2022/04/16 11:18:42;;;;;;;5.53;2.72;;;13.70;89.70;;;;;;5087304;28;20044;-70
2022/04/16 11:21:20;;;;;;;3.80;2.53;;;13.80;97.80;;;;;;5087588;28;20044;-71
2022/04/16 11:23:52;;;;;;;4.40;2.60;;;13.80;67.80;;;;;;5070990;28;20115;-68
2022/04/16 11:34:41;;;;;;;6.93;2.67;;;14.30;96.60;;;;;;5087877;28;20047;-76
2022/04/16 11:37:07;;;;;;;3.53;2.60;;;14.40;96.80;;;;;;5087613;28;20534;-71
2022/04/16 11:39:34;;;;;;;5.78;3.00;;;14.50;93.40;;;;;;5100682;28;20024;-70
2022/04/16 11:42:05;;;;;;;6.57;2.90;;;14.50;94.60;;;;;;5088128;28;20036;-72
2022/04/16 11:44:41;;;;;;;9.70;2.85;;;14.50;93.00;;;;;;5086019;28;20036;-74
2022/04/16 11:47:12;;;;;;;4.07;2.63;;;14.50;92.90;;;;;;5087356;28;20089;-71
2022/04/16 11:49:40;;;;;;;8.70;2.92;;;14.50;76.00;;;;;;5087584;28;20437;-76
2022/04/16 11:52:07;;;;;;;7.40;2.92;;;14.50;89.50;;;;;;5071281;28;20063;-74
2022/04/16 11:54:33;;;;;;;7.85;3.10;;;14.50;81.40;;;;;;5087081;28;20048;-73
2022/04/16 11:56:59;;;;;;;4.82;2.60;;;14.50;85.00;;;;;;5087764;28;20372;-73
2022/04/16 11:59:25;;;;;;;7.07;2.80;;;14.50;92.50;;;;;;5087443;28;20065;-74
2022/04/16 12:02:08;;;;;;;5.32;2.97;;;14.60;87.90;;;;;;5086881;28;20051;-71
2022/04/16 12:04:40;;;;;;;5.25;2.85;;;14.70;67.90;;;;;;5072766;28;20044;-73
2022/04/16 12:07:13;;;;;;;;;;;14.60;71.30;;;;;;5092881;28;20127;-69
2022/04/16 12:09:45;;;;;;;;;;;14.70;81.20;;;;;;5089806;28;20363;-75
2022/04/16 12:12:15;;;;;;;4.15;2.60;;;14.70;60.80;;;;;;5092205;28;19924;-72
2022/04/16 12:14:48;;;;;;;3.78;2.28;;;14.60;73.70;;;;;;5090122;28;20448;-72
2022/04/16 12:17:29;;;;;;;3.80;2.22;;;14.50;62.90;;;;;;5073016;28;20040;-75
2022/04/16 12:20:07;;;;;;;5.07;2.45;;;14.50;67.50;;;;;;5089311;28;20135;-71
2022/04/16 12:22:44;;;;;;;4.32;2.88;;;14.60;78.50;;;;;;5087607;28;20040;-73
2022/04/16 12:25:10;;;;;;;5.18;2.75;;;14.70;86.30;;;;;;5087125;28;20046;-75
2022/04/16 12:27:49;;;;;;;3.85;2.67;;;14.80;66.60;;;;;;5091880;28;20044;-72
2022/04/16 12:30:18;;;;;;;6.22;2.63;;;14.70;65.40;;;;;;5085318;28;20039;-74
2022/04/16 12:32:54;;;;;;;4.50;2.85;;;14.70;69.70;;;;;;5090101;28;20134;-74
2022/04/16 12:35:20;;;;;;;3.47;2.47;;;14.80;77.80;;;;;;5091486;28;20062;-70
2022/04/16 12:37:45;;;;;;;3.83;2.35;;;14.80;77.70;;;;;;5091856;28;20040;-72
2022/04/16 12:40:11;;;;;;;5.63;2.65;;;15.00;78.50;;;;;;5091287;28;20126;-75
2022/04/16 12:42:36;;;;;;;4.00;2.33;;;15.10;76.30;;;;;;5073860;28;20036;-70
2022/04/16 12:45:02;;;;;;;3.45;2.30;;;15.10;69.50;;;;;;5091047;28;20036;-73
2022/04/16 12:47:27;;;;;;;3.38;2.10;;;15.20;73.60;;;;;;5075051;28;20040;-70
2022/04/16 12:49:53;;;;;;;4.90;2.03;;;15.30;69.50;;;;;;5083684;28;20429;-71
2022/04/16 12:52:19;;;;;;;3.78;2.20;;;15.40;65.50;;;;;;5089934;28;20052;-74
2022/04/16 12:54:44;;;;;;;6.05;2.40;;;15.50;63.70;;;;;;5088648;28;20111;-75
2022/04/16 12:57:10;;;;;;;5.43;2.53;;;15.50;59.50;;;;;;5091735;28;20104;-74
2022/04/16 12:59:35;;;;;;;3.60;2.00;;;15.50;61.80;;;;;;5090234;28;20405;-77
2022/04/16 13:02:01;;;;;;;4.82;2.28;;;15.60;63.90;;;;;;5090171;28;20044;-75
2022/04/16 13:04:29;;;;;;;3.53;2.35;;;15.50;59.90;;;;;;5074590;28;20075;-70